Time;durP1;ratioP1;P1;durP2;ratioP2;P2;SDS_P1;SDS_P2;PMS_P1;PMS_P2;Temp;Humidity;BMP_temperature;BMP_pressure;BME280_temperature;BME280_humidity;BME280_pressure;Samples;Min_cycle;Max_cycle;Signal;HPM_P1;HPM_P2
2021/10/01 00:02:35;;;;;;;2.33;0.63;;;;;;;11.26;83.35;101826.22;6271047;28;20056;-76
2021/10/01 00:05:39;;;;;;;1.83;0.40;;;;;;;11.27;83.35;101822.69;6271716;28;20045;-76
2021/10/01 00:08:40;;;;;;;0.65;0.35;;;;;;;11.26;82.46;101827.06;6275660;28;20044;-76
2021/10/01 00:11:46;;;;;;;0.32;0.30;;;;;;;11.22;82.95;101821.97;6275325;28;20052;-76
2021/10/01 00:14:49;;;;;;;0.30;0.30;;;;;;;11.23;82.78;101814.06;6275339;28;20263;-76
2021/10/01 00:17:50;;;;;;;0.45;0.30;;;;;;;11.20;82.17;101816.78;6275404;28;20056;-76
2021/10/01 00:20:52;;;;;;;1.10;0.57;;;;;;;11.21;82.83;101817.66;6275343;28;20135;-76
2021/10/01 00:23:54;;;;;;;0.98;0.68;;;;;;;11.22;81.99;101807.09;6275213;28;20052;-76
2021/10/01 00:26:56;;;;;;;0.60;0.43;;;;;;;11.21;82.23;101802.72;6275285;28;20175;-76
2021/10/01 00:29:58;;;;;;;0.30;0.30;;;;;;;11.21;81.94;101793.97;6274998;28;20045;-77
2021/10/01 00:32:59;;;;;;;0.73;0.60;;;;;;;11.25;81.60;101788.53;6275128;28;20053;-76
2021/10/01 00:36:01;;;;;;;0.57;0.50;;;;;;;11.21;83.53;101783.44;6274668;28;20041;-76
2021/10/01 00:39:03;;;;;;;0.68;0.38;;;;;;;11.13;82.05;101789.03;6274616;28;20052;-76
2021/10/01 00:42:05;;;;;;;0.30;0.30;;;;;;;11.13;84.55;101783.75;6274935;28;20056;-76
2021/10/01 00:45:09;;;;;;;1.02;0.47;;;;;;;11.10;82.80;101779.47;6274364;28;20053;-76
2021/10/01 00:48:10;;;;;;;3.08;0.40;;;;;;;11.09;83.47;101774.28;6274898;28;20049;-76
2021/10/01 00:51:11;;;;;;;0.70;0.40;;;;;;;11.07;82.71;101776.09;6274353;28;20511;-76
2021/10/01 00:54:13;;;;;;;1.33;0.47;;;;;;;11.04;83.81;101777.09;6274465;28;20056;-76
2021/10/01 00:57:15;;;;;;;0.93;0.40;;;;;;;11.03;83.80;101771.84;6274291;28;20409;-76
2021/10/01 01:00:26;;;;;;;1.55;0.60;;;;;;;10.97;85.62;101770.34;6274513;28;20405;-76
2021/10/01 01:03:27;;;;;;;1.27;0.47;;;;;;;10.95;84.65;101766.91;6274193;28;20049;-76
2021/10/01 01:06:41;;;;;;;2.15;0.50;;;;;;;10.92;86.28;101753.88;6274276;28;20056;-76
2021/10/01 01:09:51;;;;;;;0.98;0.50;;;;;;;10.89;87.65;101753.97;6274230;28;20049;-76
2021/10/01 01:12:59;;;;;;;0.30;0.30;;;;;;;10.86;87.11;101759.38;6274075;28;20416;-75
2021/10/01 01:16:07;;;;;;;1.05;0.40;;;;;;;10.82;86.40;101757.78;6273625;28;20048;-76
2021/10/01 01:19:17;;;;;;;0.28;0.28;;;;;;;10.77;87.35;101755.31;6273419;28;20052;-76
2021/10/01 01:22:26;;;;;;;0.60;0.40;;;;;;;10.75;87.07;101748.41;6272843;28;20390;-76
2021/10/01 01:25:54;;;;;;;0.52;0.35;;;;;;;10.74;87.05;101746.69;6273624;28;20060;-75
2021/10/01 01:29:10;;;;;;;4.03;0.47;;;;;;;10.71;88.05;101738.91;6273222;28;20153;-76
2021/10/01 01:32:18;;;;;;;1.67;0.50;;;;;;;10.65;87.55;101727.72;6267168;28;20057;-76
2021/10/01 01:35:22;;;;;;;0.50;0.30;;;;;;;10.65;88.03;101729.50;6273525;28;20052;-76
2021/10/01 01:38:29;;;;;;;0.98;0.30;;;;;;;10.64;88.61;101728.63;6273463;28;20056;-76
2021/10/01 01:41:32;;;;;;;1.77;0.38;;;;;;;10.56;88.99;101720.19;6189097;23;20522;-76
2021/10/01 01:44:35;;;;;;;2.63;0.47;;;;;;;10.55;89.14;101734.25;6122836;29;20055;-76
2021/10/01 01:47:40;;;;;;;0.43;0.40;;;;;;;10.54;89.98;101721.16;6155862;28;20415;-76
2021/10/01 01:50:43;;;;;;;0.57;0.57;;;;;;;10.58;88.09;101720.09;6165226;28;20097;-77
2021/10/01 01:53:47;;;;;;;1.10;0.47;;;;;;;10.50;89.20;101722.19;6123828;29;20062;-76
2021/10/01 01:56:48;;;;;;;2.03;0.70;;;;;;;10.46;89.11;101718.81;6123827;28;20048;-75
2021/10/01 01:59:50;;;;;;;0.47;0.40;;;;;;;10.47;89.62;101712.63;6124048;28;20058;-77
2021/10/01 02:02:55;;;;;;;0.85;0.40;;;;;;;10.45;89.06;101714.47;6123697;28;20455;-76
2021/10/01 02:05:59;;;;;;;1.75;0.55;;;;;;;10.42;90.66;101711.97;6123993;29;20074;-76
2021/10/01 02:09:01;;;;;;;0.80;0.40;;;;;;;10.38;90.87;101713.84;6200471;28;20048;-76
2021/10/01 02:12:03;;;;;;;0.20;0.20;;;;;;;10.38;89.52;101710.34;6247743;28;20060;-76
2021/10/01 02:15:06;;;;;;;0.80;0.30;;;;;;;10.35;89.95;101703.44;6247654;28;20528;-75
2021/10/01 02:18:10;;;;;;;2.20;0.40;;;;;;;10.33;91.03;101701.78;6247794;28;20045;-76
2021/10/01 02:21:14;;;;;;;3.83;0.68;;;;;;;10.31;90.58;101700.97;6247250;28;20455;-76
2021/10/01 02:24:16;;;;;;;0.30;0.28;;;;;;;10.31;90.65;101696.59;6247398;28;20045;-75
2021/10/01 02:27:24;;;;;;;1.83;0.63;;;;;;;10.27;91.58;101689.75;6247420;28;20049;-75
2021/10/01 02:30:26;;;;;;;4.75;0.43;;;;;;;10.29;90.71;101681.78;6246706;28;20056;-75
2021/10/01 02:33:35;;;;;;;0.90;0.50;;;;;;;10.28;90.31;101680.94;6247289;28;20053;-75
2021/10/01 02:36:36;;;;;;;1.20;0.40;;;;;;;10.27;90.65;101679.22;6247103;28;20523;-76
2021/10/01 02:39:40;;;;;;;1.20;0.40;;;;;;;10.27;89.88;101670.50;6247041;28;20386;-75
2021/10/01 02:42:42;;;;;;;0.55;0.43;;;;;;;10.26;91.27;101677.50;6247327;28;20516;-75
2021/10/01 02:45:43;;;;;;;0.38;0.38;;;;;;;10.27;91.58;101678.38;6247118;28;20064;-76
2021/10/01 02:48:46;;;;;;;2.90;0.52;;;;;;;10.27;89.59;101673.97;6247051;28;20045;-76
2021/10/01 02:51:50;;;;;;;0.68;0.40;;;;;;;10.27;89.74;101673.13;6247055;28;20057;-76
2021/10/01 02:55:00;;;;;;;1.63;0.50;;;;;;;10.27;89.63;101679.22;6246567;28;20144;-76
2021/10/01 02:58:11;;;;;;;1.15;0.45;;;;;;;10.29;89.08;101661.63;6247074;28;20046;-76
2021/10/01 03:01:15;;;;;;;4.05;0.45;;;;;;;10.30;88.96;101658.09;6246624;28;20392;-75
2021/10/01 03:04:20;;;;;;;3.25;0.63;;;;;;;10.32;88.39;101660.69;6246623;28;20497;-76
2021/10/01 03:07:24;;;;;;;2.80;0.68;;;;;;;10.32;90.04;101656.28;6246606;28;20055;-76
2021/10/01 03:10:25;;;;;;;0.50;0.47;;;;;;;10.30;88.65;101644.94;6246756;28;20052;-76
2021/10/01 03:13:27;;;;;;;4.18;0.30;;;;;;;10.30;89.36;101642.31;6246235;28;20050;-75
2021/10/01 03:16:31;;;;;;;0.38;0.35;;;;;;;10.29;89.13;101639.75;6246637;28;20485;-75
2021/10/01 03:19:35;;;;;;;0.30;0.28;;;;;;;10.27;89.03;101641.59;6246496;28;20056;-76
2021/10/01 03:22:39;;;;;;;0.90;0.50;;;;;;;10.26;88.74;101637.25;6246647;28;20489;-75
2021/10/01 03:25:40;;;;;;;0.30;0.30;;;;;;;10.24;89.73;101639.06;6246558;28;20216;-75
2021/10/01 03:28:43;;;;;;;0.63;0.40;;;;;;;10.23;90.60;101637.34;6246316;28;20456;-76
2021/10/01 03:31:46;;;;;;;0.30;0.30;;;;;;;10.19;90.77;101641.00;6246478;28;20049;-75
2021/10/01 03:34:48;;;;;;;0.68;0.40;;;;;;;10.12;91.70;101638.56;6246013;28;20056;-76
2021/10/01 03:37:51;;;;;;;0.40;0.30;;;;;;;10.08;92.66;101638.75;6246359;28;20056;-76
2021/10/01 03:40:53;;;;;;;4.88;0.60;;;;;;;10.02;92.62;101624.06;6247697;28;20049;-75
2021/10/01 03:43:54;;;;;;;1.15;0.43;;;;;;;9.96;92.55;101633.97;6251143;28;20459;-76
2021/10/01 03:46:55;;;;;;;1.88;0.57;;;;;;;9.90;92.32;101637.66;6251143;28;20048;-76
2021/10/01 03:49:58;;;;;;;4.00;0.50;;;;;;;9.84;95.82;101632.63;6251123;28;20772;-77
2021/10/01 03:53:00;;;;;;;0.28;0.22;;;;;;;9.80;94.46;101631.88;6250982;28;20052;-76
2021/10/01 03:56:01;;;;;;;0.77;0.38;;;;;;;9.77;94.43;101618.88;6251020;28;20049;-75
2021/10/01 03:59:02;;;;;;;0.22;0.22;;;;;;;9.69;96.04;101623.53;6250750;28;20481;-76
2021/10/01 04:02:04;;;;;;;0.32;0.32;;;;;;;9.68;95.39;101621.84;6250893;28;20045;-76
2021/10/01 04:05:07;;;;;;;1.17;0.47;;;;;;;9.68;94.25;101618.34;6250749;28;20049;-76
2021/10/01 04:08:09;;;;;;;3.55;0.50;;;;;;;9.59;95.26;101623.00;6250713;28;20046;-76
2021/10/01 04:11:11;;;;;;;1.65;0.32;;;;;;;9.53;96.59;101617.97;6251017;28;20500;-76
2021/10/01 04:14:12;;;;;;;4.72;0.43;;;;;;;9.52;97.06;101618.88;6250199;28;20049;-76
2021/10/01 04:17:13;;;;;;;0.88;0.55;;;;;;;9.52;97.72;101618.03;6250516;28;20046;-76
2021/10/01 04:20:16;;;;;;;0.50;0.32;;;;;;;9.49;96.03;101620.75;6250170;28;20051;-75
2021/10/01 04:23:18;;;;;;;0.30;0.30;;;;;;;9.46;97.03;101615.63;6250391;28;20050;-76
2021/10/01 04:26:19;;;;;;;0.38;0.38;;;;;;;9.49;97.60;101616.34;6250237;28;20416;-76
2021/10/01 04:29:21;;;;;;;0.68;0.50;;;;;;;9.49;97.16;101613.72;6250192;28;20056;-76
2021/10/01 04:32:22;;;;;;;0.60;0.30;;;;;;;9.48;97.41;101613.78;6250200;28;20053;-76
2021/10/01 04:35:25;;;;;;;1.48;0.40;;;;;;;9.49;96.64;101605.00;6249721;28;20049;-76
2021/10/01 04:38:26;;;;;;;0.65;0.40;;;;;;;9.50;96.92;101606.75;6249932;28;20048;-76
2021/10/01 04:41:28;;;;;;;1.65;0.63;;;;;;;9.52;96.46;101604.91;6249757;28;20120;-75
2021/10/01 04:44:29;;;;;;;0.93;0.47;;;;;;;9.54;95.10;101603.94;6249585;28;20049;-76
2021/10/01 04:47:31;;;;;;;1.65;0.30;;;;;;;9.62;94.35;101604.50;6249748;28;20052;-76
2021/10/01 04:50:34;;;;;;;2.88;0.50;;;;;;;9.61;94.34;101596.72;6249674;28;20057;-76
2021/10/01 04:53:36;;;;;;;0.80;0.50;;;;;;;9.65;93.68;101595.69;6248238;28;20052;-76
2021/10/01 04:56:37;;;;;;;0.40;0.40;;;;;;;9.65;92.76;101599.16;6249612;28;20420;-75
2021/10/01 04:59:38;;;;;;;1.77;0.55;;;;;;;9.65;93.06;101603.56;6249346;28;20045;-76
2021/10/01 05:02:40;;;;;;;0.55;0.45;;;;;;;9.66;93.62;101600.88;6249421;28;20537;-76
2021/10/01 05:05:42;;;;;;;0.68;0.30;;;;;;;9.67;93.80;101599.09;6249032;28;20056;-75
2021/10/01 05:08:44;;;;;;;2.95;0.70;;;;;;;9.67;92.79;101593.84;6249429;28;20500;-75
2021/10/01 05:11:45;;;;;;;2.53;0.98;;;;;;;9.67;93.89;101599.09;6249417;28;20045;-75
2021/10/01 05:14:46;;;;;;;2.50;1.08;;;;;;;9.69;92.18;101591.19;6248699;28;20060;-75
2021/10/01 05:17:49;;;;;;;0.30;0.30;;;;;;;9.68;93.38;101595.59;6249120;28;20046;-75
2021/10/01 05:20:52;;;;;;;2.35;0.43;;;;;;;9.68;93.58;101600.84;6248845;28;20050;-75
2021/10/01 05:23:53;;;;;;;0.40;0.40;;;;;;;9.71;93.02;101598.09;6248781;28;20048;-75
2021/10/01 05:26:57;;;;;;;1.15;0.80;;;;;;;9.71;93.49;101597.22;6249101;28;20072;-75
2021/10/01 05:29:59;;;;;;;1.33;0.20;;;;;;;9.68;92.91;101595.59;6248794;28;20489;-75
2021/10/01 05:33:05;;;;;;;3.55;0.55;;;;;;;9.70;93.44;101590.28;6248945;28;20417;-75
2021/10/01 05:36:07;;;;;;;0.40;0.40;;;;;;;9.70;93.39;101595.53;6248701;28;20052;-75
2021/10/01 05:39:09;;;;;;;1.67;0.52;;;;;;;9.79;92.30;101598.66;6248353;28;20057;-75
2021/10/01 05:42:10;;;;;;;2.80;0.80;;;;;;;9.76;93.33;101590.91;6248348;28;20053;-75
2021/10/01 05:45:11;;;;;;;1.13;0.70;;;;;;;9.83;93.90;101588.91;6248168;28;20056;-75
2021/10/01 05:48:13;;;;;;;2.30;0.82;;;;;;;9.81;94.68;101583.75;6248512;28;20049;-75
2021/10/01 05:51:15;;;;;;;1.48;1.10;;;;;;;9.83;95.02;101575.78;6248237;28;20060;-76
2021/10/01 05:54:22;;;;;;;0.70;0.57;;;;;;;9.86;94.01;101580.94;6248019;28;20489;-74
2021/10/01 05:57:24;;;;;;;4.32;0.90;;;;;;;9.88;95.40;101581.72;6247997;28;20050;-75
2021/10/01 06:00:25;;;;;;;0.50;0.40;;;;;;;9.92;95.53;101578.06;6248326;28;20052;-75
2021/10/01 06:03:27;;;;;;;1.33;0.45;;;;;;;9.99;96.32;101576.94;6247831;28;20639;-75
2021/10/01 06:06:30;;;;;;;0.50;0.40;;;;;;;9.98;96.40;101577.84;6247990;28;20443;-76
2021/10/01 06:09:31;;;;;;;0.70;0.40;;;;;;;9.98;96.38;101576.97;6247984;28;20045;-76
2021/10/01 06:12:34;;;;;;;0.55;0.50;;;;;;;10.05;95.97;101583.72;6247723;28;20046;-76
2021/10/01 06:15:35;;;;;;;0.60;0.38;;;;;;;10.05;96.02;101575.84;6247607;28;20041;-76
2021/10/01 06:18:37;;;;;;;0.85;0.40;;;;;;;10.09;95.98;101583.56;6247642;28;20390;-76
2021/10/01 06:21:39;;;;;;;1.27;0.38;;;;;;;10.09;96.65;101583.56;6247637;28;20050;-76
2021/10/01 06:24:42;;;;;;;0.52;0.32;;;;;;;10.13;96.68;101582.53;6247566;28;20057;-77
2021/10/01 06:27:43;;;;;;;0.55;0.40;;;;;;;10.17;94.80;101578.00;6248986;28;20501;-77
2021/10/01 06:30:44;;;;;;;4.40;0.63;;;;;;;10.25;95.35;101580.38;6247492;28;20053;-75
2021/10/01 06:33:46;;;;;;;1.13;0.68;;;;;;;10.29;95.26;101577.56;6246539;28;20275;-75
2021/10/01 06:36:48;;;;;;;0.40;0.35;;;;;;;10.37;94.34;101583.38;6244981;28;20045;-76
2021/10/01 06:39:50;;;;;;;0.43;0.43;;;;;;;10.36;93.71;101581.69;6246484;28;20057;-76
2021/10/01 06:42:53;;;;;;;0.55;0.50;;;;;;;10.42;93.44;101583.19;6247323;28;20060;-76
2021/10/01 06:45:56;;;;;;;0.20;0.20;;;;;;;10.47;92.44;101577.75;6247001;28;20140;-76
2021/10/01 06:49:09;;;;;;;0.93;0.35;;;;;;;10.49;92.02;101586.44;6247089;28;20529;-76
2021/10/01 06:52:33;;;;;;;0.40;0.30;;;;;;;10.58;91.74;101591.31;6247096;28;20152;-76
2021/10/01 07:22:45;;;;;;;;;;;;;;;10.87;90.02;101585.75;6247423;28;20045;-73
2021/10/01 07:36:24;;;;;;;0.95;0.43;;;;;;;11.01;90.52;101579.06;6246398;28;20466;-77
2021/10/01 08:19:32;;;;;;;1.92;0.65;;;;;;;11.75;85.90;101550.41;6246231;28;20049;-76
2021/10/01 08:22:33;;;;;;;0.20;0.20;;;;;;;11.81;86.73;101552.75;6246049;28;20045;-76
2021/10/01 08:25:35;;;;;;;2.40;0.32;;;;;;;11.84;85.74;101556.13;6245983;28;20050;-75
2021/10/01 08:28:36;;;;;;;0.40;0.40;;;;;;;11.86;86.02;101556.09;6248405;28;20060;-76
2021/10/01 08:31:40;;;;;;;0.32;0.32;;;;;;;11.86;87.17;101550.81;6250437;28;20493;-76
2021/10/01 08:34:42;;;;;;;1.23;0.40;;;;;;;11.79;86.69;101557.25;6250012;28;20049;-76
2021/10/01 08:37:43;;;;;;;2.17;0.47;;;;;;;11.79;86.45;101554.59;6250417;28;20127;-76
2021/10/01 08:40:45;;;;;;;1.45;0.55;;;;;;;11.81;86.69;101553.63;6250237;28;20060;-76
2021/10/01 08:43:47;;;;;;;1.00;0.43;;;;;;;11.88;88.96;101551.59;6250059;28;20057;-76
2021/10/01 08:46:50;;;;;;;1.55;0.40;;;;;;;11.92;89.13;101548.75;6245675;28;20481;-76
2021/10/01 08:49:54;;;;;;;0.22;0.22;;;;;;;12.00;88.17;101542.28;6249125;28;20127;-76
2021/10/01 08:52:59;;;;;;;0.55;0.30;;;;;;;12.05;88.17;101535.00;6249567;28;20053;-77
2021/10/01 08:56:01;;;;;;;0.73;0.40;;;;;;;12.16;86.39;101535.34;6249961;28;20049;-75
2021/10/01 08:59:03;;;;;;;2.38;0.50;;;;;;;12.27;85.81;101525.16;6249863;28;20053;-77
2021/10/01 09:02:06;;;;;;;0.65;0.30;;;;;;;12.48;84.90;101527.66;6249447;28;20049;-76
2021/10/01 09:05:08;;;;;;;0.77;0.50;;;;;;;12.60;85.29;101519.16;6249563;28;20057;-76
2021/10/01 09:08:11;;;;;;;0.60;0.40;;;;;;;12.75;85.62;101512.28;6249278;28;20046;-76
2021/10/01 09:11:14;;;;;;;2.88;0.50;;;;;;;12.93;85.88;101503.44;6249633;28;20175;-77
2021/10/01 09:14:19;;;;;;;1.25;0.50;;;;;;;13.05;83.20;101499.31;6249145;28;20057;-77
2021/10/01 09:17:24;;;;;;;0.75;0.20;;;;;;;13.08;81.84;101502.66;6249437;28;20643;-76
2021/10/01 09:20:27;;;;;;;2.25;0.40;;;;;;;13.22;83.12;101509.91;6249543;28;20049;-76
2021/10/01 09:23:28;;;;;;;2.38;0.40;;;;;;;13.30;83.57;101506.84;6249063;28;20132;-76
2021/10/01 09:26:31;;;;;;;1.08;0.52;;;;;;;13.36;82.04;101498.59;6249132;28;20394;-77
2021/10/01 09:29:34;;;;;;;0.10;0.10;;;;;;;13.40;81.30;101498.38;6249279;28;20050;-77
2021/10/01 09:32:38;;;;;;;5.45;0.30;;;;;;;13.51;77.30;101491.66;6248888;28;20060;-76
2021/10/01 09:35:41;;;;;;;5.53;0.50;;;;;;;13.65;75.46;101492.59;6248870;28;20053;-77
2021/10/01 09:38:43;;;;;;;2.47;0.45;;;;;;;13.79;75.09;101489.22;6248004;28;20045;-77
2021/10/01 09:41:44;;;;;;;1.08;0.40;;;;;;;13.80;75.09;101488.25;6248421;28;20052;-77
2021/10/01 09:44:49;;;;;;;0.90;0.52;;;;;;;13.88;74.45;101478.13;6248597;28;20049;-76
2021/10/01 09:47:52;;;;;;;1.67;0.65;;;;;;;14.04;72.78;101475.50;6248684;28;20053;-76
2021/10/01 09:51:07;;;;;;;1.10;0.85;;;;;;;14.01;73.58;101470.38;6248870;28;20053;-76
2021/10/01 09:54:11;;;;;;;0.47;0.45;;;;;;;14.12;71.12;101467.97;6247148;28;20052;-76
2021/10/01 09:57:13;;;;;;;0.63;0.30;;;;;;;14.24;70.62;101469.06;6248423;28;20041;-76
2021/10/01 10:00:31;;;;;;;0.10;0.10;;;;;;;14.35;70.16;101469.34;6247974;28;20052;-76
2021/10/01 10:03:35;;;;;;;0.30;0.30;;;;;;;14.46;70.94;101466.91;6248003;28;20057;-76
2021/10/01 10:06:43;;;;;;;2.15;0.50;;;;;;;14.55;71.54;101464.69;6248100;28;20053;-76
2021/10/01 10:09:47;;;;;;;1.02;0.30;;;;;;;14.58;71.11;101457.44;6248132;28;20041;-76
2021/10/01 10:12:49;;;;;;;2.90;0.40;;;;;;;14.63;72.99;101460.66;6248009;28;20424;-77
2021/10/01 10:16:05;;;;;;;0.20;0.20;;;;;;;14.76;72.11;101465.22;6248040;28;20049;-76
2021/10/01 10:19:10;;;;;;;0.50;0.38;;;;;;;14.77;71.94;101464.28;6247723;28;20041;-76
2021/10/01 10:22:11;;;;;;;1.48;0.30;;;;;;;14.74;71.05;101457.38;6247762;28;20049;-76
2021/10/01 10:25:13;;;;;;;0.40;0.35;;;;;;;14.70;71.25;101455.84;6247732;28;20056;-76
2021/10/01 10:28:14;;;;;;;1.10;0.60;;;;;;;14.62;71.22;101448.34;6247847;28;20068;-76
2021/10/01 10:31:18;;;;;;;0.70;0.50;;;;;;;14.66;70.86;101446.38;6247684;28;20053;-77
2021/10/01 10:34:24;;;;;;;3.45;0.55;;;;;;;14.70;72.15;101451.41;6244509;28;20497;-77
2021/10/01 10:37:37;;;;;;;0.10;0.10;;;;;;;14.76;73.59;101441.41;6247281;28;20045;-77
2021/10/01 10:40:42;;;;;;;0.63;0.50;;;;;;;14.76;70.94;101437.00;6247283;28;20037;-77
2021/10/01 10:43:46;;;;;;;0.93;0.65;;;;;;;14.88;71.45;101436.22;6247028;28;20053;-76
2021/10/01 10:46:47;;;;;;;0.38;0.30;;;;;;;14.95;71.48;101434.06;6247598;28;20049;-77
2021/10/01 10:49:50;;;;;;;0.50;0.30;;;;;;;15.00;70.60;101431.16;6246648;28;20053;-76
2021/10/01 10:53:15;;;;;;;1.58;0.50;;;;;;;15.13;72.19;101425.00;6247802;28;20050;-77
2021/10/01 10:56:19;;;;;;;0.38;0.30;;;;;;;15.17;69.58;101415.94;6246840;28;20053;-74
2021/10/01 10:59:29;;;;;;;1.00;0.50;;;;;;;15.23;72.07;101425.28;6246795;28;20404;-75
2021/10/01 11:02:33;;;;;;;0.10;0.10;;;;;;;15.36;70.01;101396.25;6247548;28;20056;-78
2021/10/01 11:05:36;;;;;;;2.33;0.50;;;;;;;15.48;68.50;101400.75;6247791;28;20156;-77
2021/10/01 11:08:39;;;;;;;1.45;0.30;;;;;;;15.65;69.85;101397.06;6247847;28;20045;-77
2021/10/01 11:11:41;;;;;;;0.30;0.30;;;;;;;15.95;69.34;101392.44;6247812;28;20064;-77
2021/10/01 11:14:43;;;;;;;0.88;0.30;;;;;;;16.30;68.67;101388.38;6247965;28;20046;-77
2021/10/01 11:18:17;;;;;;;0.93;0.30;;;;;;;16.41;66.40;101386.72;6247943;28;20057;-77
2021/10/01 11:21:37;;;;;;;1.55;0.47;;;;;;;16.45;66.62;101377.59;6247253;28;20091;-77
2021/10/01 11:24:46;;;;;;;1.13;0.60;;;;;;;16.38;64.97;101378.97;6246801;28;20053;-83
2021/10/01 11:27:50;;;;;;;2.47;0.40;;;;;;;16.23;67.04;101380.00;6246896;28;20441;-77
2021/10/01 11:30:53;;;;;;;3.60;1.58;;;;;;;16.45;67.35;101374.09;6246972;28;20053;-76
2021/10/01 11:33:55;;;;;;;0.43;0.40;;;;;;;16.64;65.12;101379.00;6246898;28;20412;-76
2021/10/01 11:36:57;;;;;;;1.90;0.90;;;;;;;16.82;66.04;101368.94;6246992;28;20060;-76
2021/10/01 11:40:01;;;;;;;1.50;0.28;;;;;;;16.68;65.32;101370.72;6247163;28;20400;-78
2021/10/01 11:43:02;;;;;;;1.30;0.50;;;;;;;16.55;66.46;101364.56;6246590;28;20049;-77
2021/10/01 11:46:04;;;;;;;0.85;0.40;;;;;;;16.52;65.96;101359.44;6246412;28;20057;-77
2021/10/01 11:49:15;;;;;;;0.30;0.30;;;;;;;16.60;65.78;101361.59;6246628;28;20057;-77
2021/10/01 11:52:18;;;;;;;2.08;0.88;;;;;;;16.80;64.17;101350.44;6246414;28;20504;-77
2021/10/01 11:55:19;;;;;;;0.50;0.30;;;;;;;17.15;63.37;101349.78;6246234;28;20045;-76
2021/10/01 11:58:23;;;;;;;0.75;0.30;;;;;;;17.61;62.39;101343.78;6245475;28;20492;-76
2021/10/01 12:01:24;;;;;;;1.55;0.30;;;;;;;17.75;58.01;101341.00;6247060;28;20045;-77
2021/10/01 12:04:33;;;;;;;0.65;0.43;;;;;;;18.02;58.45;101332.78;6250757;28;20050;-77
2021/10/01 12:07:46;;;;;;;0.88;0.40;;;;;;;17.93;60.34;101333.47;6250735;28;20045;-77
2021/10/01 12:10:50;;;;;;;1.27;0.28;;;;;;;17.68;59.01;101329.09;6249447;28;20045;-77
2021/10/01 12:13:51;;;;;;;0.30;0.30;;;;;;;17.65;59.16;101322.19;6250671;28;20072;-77
2021/10/01 12:16:58;;;;;;;3.88;0.45;;;;;;;17.52;59.58;101321.41;6250759;28;20052;-77
2021/10/01 12:20:01;;;;;;;0.40;0.10;;;;;;;17.50;58.61;101312.69;6242262;28;20489;-76
2021/10/01 12:26:32;;;;;;;0.60;0.20;;;;;;;17.48;63.78;101302.16;6315354;27;20337;-78
2021/10/01 12:29:42;;;;;;;0.93;0.30;;;;;;;17.76;59.63;101292.22;6294522;28;20185;-77
2021/10/01 12:32:47;;;;;;;0.70;0.50;;;;;;;18.22;57.94;101294.03;6270601;28;20060;-77
2021/10/01 12:35:48;;;;;;;0.73;0.47;;;;;;;18.93;55.73;101281.38;6268957;28;20645;-77
2021/10/01 12:38:54;;;;;;;0.52;0.22;;;;;;;19.01;51.76;101270.97;6269898;28;20049;-78
2021/10/01 12:41:58;;;;;;;1.85;0.30;;;;;;;19.07;52.85;101265.13;6269673;28;20432;-76
2021/10/01 12:45:02;;;;;;;1.20;0.50;;;;;;;19.39;53.49;101264.31;6267855;28;20048;-76
2021/10/01 12:48:05;;;;;;;0.35;0.30;;;;;;;19.24;55.32;101266.44;6268230;28;20053;-76
2021/10/01 12:51:22;;;;;;;0.30;0.30;;;;;;;19.18;57.09;101270.47;6285323;28;20057;-76
2021/10/01 12:54:26;;;;;;;10.45;5.07;;;;;;;19.57;53.42;101268.13;6272402;28;20079;-76
2021/10/01 12:57:35;;;;;;;3.92;0.50;;;;;;;19.84;50.15;101270.34;6267981;28;20493;-76
2021/10/01 13:00:37;;;;;;;;;;;;;;;19.71;54.26;101272.34;6268563;28;20053;-76
2021/10/01 13:03:46;;;;;;;0.20;0.20;;;;;;;19.42;51.89;101253.41;6267393;28;19929;-76
2021/10/01 13:06:47;;;;;;;0.55;0.43;;;;;;;19.31;51.38;101256.13;6267811;28;20053;-77
2021/10/01 13:09:49;;;;;;;0.68;0.35;;;;;;;19.12;52.76;101257.66;6268045;28;20492;-77
2021/10/01 13:12:55;;;;;;;0.20;0.20;;;;;;;19.05;51.72;101253.78;6267929;28;20049;-76
2021/10/01 13:15:58;;;;;;;0.20;0.20;;;;;;;18.87;53.79;101256.09;6267233;28;20049;-76
2021/10/01 13:19:11;;;;;;;1.20;0.20;;;;;;;18.70;54.66;101248.59;6268882;28;20080;-78
2021/10/01 13:22:12;;;;;;;0.38;0.25;;;;;;;18.66;50.99;101245.28;6268863;28;20124;-78
2021/10/01 13:25:22;;;;;;;0.30;0.30;;;;;;;18.68;52.81;101250.53;6289699;28;20173;-78
2021/10/01 13:28:26;;;;;;;;;;;;;;;18.55;53.08;101240.00;6288456;28;20044;-79
2021/10/01 13:31:29;;;;;;;0.52;0.40;;;;;;;18.30;54.74;101241.06;6284611;28;20276;-78
2021/10/01 13:34:32;;;;;;;0.73;0.40;;;;;;;18.15;53.61;101234.28;6279869;28;20049;-79
2021/10/01 13:37:33;;;;;;;0.65;0.20;;;;;;;18.12;53.77;101242.47;6253212;28;20057;-78
2021/10/01 13:40:36;;;;;;;0.40;0.40;;;;;;;18.28;52.16;101226.19;6257645;28;20048;-77
2021/10/01 13:43:40;;;;;;;0.57;0.50;;;;;;;18.44;51.72;101221.34;6261911;28;20057;-78
2021/10/01 13:46:41;;;;;;;0.77;0.40;;;;;;;18.36;53.11;101213.13;6251954;28;20049;-80
2021/10/01 13:49:43;;;;;;;0.55;0.50;;;;;;;18.39;54.46;101213.72;6252671;28;20053;-79
2021/10/01 13:52:44;;;;;;;1.27;0.40;;;;;;;18.65;55.45;101209.00;6251582;28;20056;-79
2021/10/01 13:55:46;;;;;;;0.95;0.47;;;;;;;18.66;53.22;101208.03;6264839;28;20416;-79
2021/10/01 13:58:48;;;;;;;0.30;0.30;;;;;;;18.65;51.94;101208.16;6261915;28;20136;-78
2021/10/01 14:01:50;;;;;;;0.25;0.20;;;;;;;18.56;53.34;101207.06;6250099;28;20056;-75
2021/10/01 14:04:51;;;;;;;0.68;0.50;;;;;;;18.58;51.81;101191.84;6249187;28;20053;-74
2021/10/01 14:07:53;;;;;;;3.58;0.40;;;;;;;18.84;51.77;101197.75;6249908;28;20488;-78
2021/10/01 14:10:55;;;;;;;1.05;0.32;;;;;;;18.99;50.28;101188.53;6250080;28;20394;-78
2021/10/01 14:13:57;;;;;;;0.60;0.52;;;;;;;18.82;50.50;101180.22;6249685;28;20056;-78
2021/10/01 14:16:59;;;;;;;1.23;0.40;;;;;;;18.57;53.23;101171.50;6250277;28;20053;-78
2021/10/01 14:20:01;;;;;;;0.32;0.20;;;;;;;18.40;54.79;101175.53;6250149;28;20053;-79
2021/10/01 14:23:02;;;;;;;0.57;0.40;;;;;;;18.28;52.54;101173.81;6250548;28;20057;-78
2021/10/01 14:26:04;;;;;;;0.60;0.40;;;;;;;18.12;55.40;101182.19;6249535;28;20049;-79
2021/10/01 14:29:06;;;;;;;0.75;0.30;;;;;;;17.96;52.76;101171.88;6249686;28;20467;-78
2021/10/01 14:32:09;;;;;;;0.25;0.20;;;;;;;17.93;56.70;101176.56;6249845;28;20056;-78
2021/10/01 14:35:12;;;;;;;0.57;0.45;;;;;;;17.84;55.70;101177.28;6249191;28;20060;-78
2021/10/01 14:38:13;;;;;;;0.20;0.17;;;;;;;17.73;54.11;101184.28;6249692;28;20056;-78
2021/10/01 14:41:15;;;;;;;0.57;0.30;;;;;;;17.68;54.49;101174.94;6249189;28;20076;-77
2021/10/01 14:44:18;;;;;;;0.80;0.40;;;;;;;17.54;56.91;101178.63;6261873;28;20049;-78
2021/10/01 14:47:19;;;;;;;0.32;0.20;;;;;;;17.44;59.28;101174.97;6261984;28;20068;-78
2021/10/01 14:50:21;;;;;;;0.82;0.32;;;;;;;17.34;56.77;101177.47;6249317;28;20053;-78
2021/10/01 14:53:22;;;;;;;0.93;0.22;;;;;;;17.31;55.72;101172.41;6248934;28;20053;-80
2021/10/01 14:56:24;;;;;;;1.55;0.43;;;;;;;17.32;60.65;101166.13;6259225;28;20045;-80
2021/10/01 14:59:27;;;;;;;0.30;0.20;;;;;;;17.22;57.05;101159.81;6261915;28;20045;-80
2021/10/01 15:02:28;;;;;;;1.05;0.20;;;;;;;17.19;54.44;101162.69;6248939;28;20132;-79
2021/10/01 15:05:30;;;;;;;0.80;0.22;;;;;;;17.20;55.19;101165.22;6248947;28;20053;-77
2021/10/01 15:08:31;;;;;;;0.30;0.20;;;;;;;17.14;59.40;101159.53;6248971;28;20049;-79
2021/10/01 15:11:33;;;;;;;0.30;0.30;;;;;;;17.02;60.40;101153.31;6249695;28;20045;-80
2021/10/01 15:14:36;;;;;;;0.10;0.10;;;;;;;16.96;57.93;101151.94;6248995;28;20046;-80
2021/10/01 15:17:37;;;;;;;0.32;0.17;;;;;;;16.90;59.91;101159.53;6248959;28;20054;-81
2021/10/01 15:20:39;;;;;;;0.10;0.10;;;;;;;16.88;61.70;101156.97;6248669;28;20053;-80
2021/10/01 15:23:41;;;;;;;0.40;0.22;;;;;;;16.76;58.99;101155.22;6248361;28;20056;-80
2021/10/01 15:26:42;;;;;;;0.30;0.22;;;;;;;16.73;61.74;101147.47;6248719;28;20049;-80
2021/10/01 15:30:11;;;;;;;0.30;0.20;;;;;;;16.65;63.05;101152.47;6248856;28;20148;-79
2021/10/01 15:33:13;;;;;;;0.10;0.10;;;;;;;16.53;63.21;101145.38;6253708;28;20046;-79
2021/10/01 15:36:15;;;;;;;1.40;0.30;;;;;;;16.48;61.67;101149.19;6253726;28;20045;-79
2021/10/01 15:39:16;;;;;;;0.57;0.32;;;;;;;16.43;60.39;101153.16;6251749;28;20109;-77